• Join FlightAware (Why Join?)
  • Login
  • US Flag 
10:01AM EDT


 

Airport Tracker/Info


-or-


 

Live Flight TrackerFlight Track Log ✈ SWA407 ✈ 30-Apr-2013 ✈ KMCO - KATL

Flight Track Log - Related Links

Times and Time Zones

All times are in EDT time to prevent confusion due to time zone crossing. See the SWA407 flight status page for this flight to view local times or setup timezone preferences in your user account.

Time Position Orientation Groundspeed Altitude Reporting Facility
EDT Latitude Longitude Course Direction KTS MPH feet Rate Location/Type
03:02PM 28.4000 -81.3000 150° Southeast 169 194 800  Level Orlando TRACON
03:03PM 28.3500 -81.2667 150° Southeast 216 249 2,900 2,340 Climbing Orlando TRACON
03:04PM 28.3333 -81.2167 111° Southeast 248 285 5,300 2,580 Climbing Orlando TRACON
03:05PM 28.3500 -81.1333 77° East 286 329 8,100 2,700 Climbing Orlando TRACON
03:06PM 28.4333 -81.1500 350° North 290 334 11,300 2,520 Climbing Orlando TRACON
03:08PM 28.5897 -81.2092 342° North 335 386 15,500 2,640 Climbing Jacksonville Center
03:09PM 28.6922 -81.2289 350° North 354 407 18,800 3,000 Climbing Jacksonville Center
03:10PM 28.8008 -81.2436 353° North 372 428 21,600 2,580 Climbing Jacksonville Center
03:11PM 28.9117 -81.2656 350° North 393 452 24,000 2,220 Climbing Jacksonville Center
03:12PM 29.0267 -81.2825 353° North 405 466 26,100 1,980 Climbing Jacksonville Center
03:13PM 29.1461 -81.3044 351° North 417 480 28,000 2,280 Climbing Jacksonville Center
03:14PM 29.2653 -81.3286 350° North 427 491 30,700 2,400 Climbing Jacksonville Center
03:15PM 29.3825 -81.3458 353° North 427 491 32,900 1,140 Climbing Jacksonville Center
03:16PM 29.5100 -81.3678 351° North 427 491 33,000  Climbing Jacksonville Center
03:17PM 29.6292 -81.3897 351° North 427 491 33,000  Level Jacksonville Center
03:18PM 29.7483 -81.4069 353° North 427 491 33,000  Level Jacksonville Center
03:19PM 29.8656 -81.4292 351° North 427 491 33,000 -180 Level Jacksonville Center
03:20PM 29.9847 -81.4489 352° North 427 491 32,700 -1,080 Descending Jacksonville Center
03:21PM 30.0978 -81.4689 351° North 427 491 30,900 -1,560 Descending Jacksonville Center
03:22PM 30.2086 -81.4864 352° North 415 478 29,600 -1,200 Descending Jacksonville Center
03:23PM 30.3278 -81.5089 351° North 413 475 28,500 -1,140 Descending Jacksonville Center
03:24PM 30.4267 -81.5628 335° Northwest 418 481 27,400 -780 Descending Jacksonville Center
03:25PM 30.5336 -81.6239 334° Northwest 423 487 27,000 -240 Descending Jacksonville Center
03:26PM 30.6408 -81.6878 333° Northwest 428 493 27,000  Level Jacksonville Center
03:27PM 30.7394 -81.7469 333° Northwest 418 481 27,000  Level Jacksonville Center
03:29PM 30.9306 -81.8583 333° Northwest 388 447 27,000  Level Jacksonville Center
03:30PM 31.0269 -81.9156 333° Northwest 388 447 27,000  Level Jacksonville Center
03:31PM 31.1214 -81.9728 333° Northwest 388 447 27,000  Level Jacksonville Center
03:32PM 31.2200 -82.0300 334° Northwest 388 447 27,000  Level Jacksonville Center
03:33PM 31.3142 -82.0878 332° Northwest 388 447 27,000  Level Jacksonville Center
03:34PM 31.4128 -82.1453 334° Northwest 388 447 27,000  Level Jacksonville Center
03:35PM 31.5111 -82.2028 334° Northwest 388 447 27,000  Level Jacksonville Center
03:37PM 31.7200 -82.3225 334° Northwest 397 457 27,000  Level Atlanta Center
03:38PM 31.8106 -82.3867 329° Northwest 390 449 27,000  Level Atlanta Center
03:39PM 31.8931 -82.4683 320° Northwest 385 443 27,000  Level Atlanta Center
03:40PM 31.9733 -82.5478 320° Northwest 385 443 27,000  Level Atlanta Center
03:41PM 32.0558 -82.6297 320° Northwest 379 436 27,000 -540 Level Atlanta Center
03:42PM 32.1403 -82.7119 321° Northwest 385 443 26,000 -1,020 Descending Atlanta Center
03:43PM 32.2225 -82.8014 317° Northwest 391 450 25,000 -540 Descending Atlanta Center
03:44PM 32.3089 -82.8839 321° Northwest 391 450 25,000 -420 Level Atlanta Center
03:45PM 32.3953 -82.9689 320° Northwest 391 450 24,200 -540 Descending Atlanta Center
03:46PM 32.4753 -83.0514 319° Northwest 396 456 24,000 -120 Descending Atlanta Center
03:47PM 32.5594 -83.1344 320° Northwest 396 456 24,000  Level Atlanta Center
03:48PM 32.6414 -83.2197 319° Northwest 396 456 24,000  Level Atlanta Center
03:49PM 32.7233 -83.3031 319° Northwest 396 456 24,000  Level Atlanta Center
03:50PM 32.8072 -83.3889 319° Northwest 396 456 24,000 -780 Level Atlanta Center
03:51PM 32.8892 -83.4747 319° Northwest 396 456 22,500 -1,800 Descending Atlanta Center
03:52PM 32.9708 -83.5561 320° Northwest 396 456 20,400 -2,100 Descending Atlanta Center
03:53PM 33.0483 -83.6397 318° Northwest 385 443 18,400 -1,920 Descending Atlanta Center
03:54PM 33.1153 -83.7039 321° Northwest 363 418 16,600 -2,640 Descending Atlanta Center
03:54PM 33.1500 -83.7333 325° Northwest 362 417 14,900 -1,980 Descending Atlanta TRACON
03:55PM 33.2167 -83.8167 314° West 366 421 14,000 -660 Descending Atlanta TRACON
03:56PM 33.2833 -83.9167 309° West 365 420 13,600 -660 Descending Atlanta TRACON
03:57PM 33.3225 -83.9667 313° West 363 418 13,000 -1,020 Descending Atlanta Center
03:58PM 33.3831 -84.0611 308° West 363 418 12,000 -540 Descending Atlanta Center
03:59PM 33.4456 -84.1558 308° West 363 418 12,000  Level Atlanta Center
03:59PM 33.4667 -84.2000 300° West 347 399 12,000  Level Atlanta TRACON
04:00PM 33.5167 -84.2667 312° West 281 323 12,000 -540 Level Atlanta TRACON
04:01PM 33.5500 -84.3500 296° West 258 297 11,000 -1,200 Descending Atlanta TRACON
04:02PM 33.5500 -84.4333 270° West 262 302 9,700 -1,920 Descending Atlanta TRACON
04:03PM 33.5500 -84.5000 270° West 243 280 7,400 -2,340 Descending Atlanta TRACON
04:04PM 33.5500 -84.6000 270° West 232 267 4,800 -2,100 Descending Atlanta TRACON
04:05PM 33.5833 -84.6333 320° Northwest 220 253 3,200 -960 Descending Atlanta TRACON
04:06PM 33.6167 -84.6000 40° Northeast 196 226 3,000 -360 Descending Atlanta TRACON
04:07PM 33.6333 -84.5500 68° East 171 197 2,500 -600 Descending Atlanta TRACON
04:08PM 33.6333 -84.5000 90° East 143 165 1,800 -780 Descending Atlanta TRACON
04:10PM 33.6367 -84.4279 64° Northeast  Level Estimated
04:17PM 33.6367 -84.4279 64° Northeast  Level Estimated
04:18PM 33.6367 -84.4279 64° Northeast  Level Estimated